Observations for Trim Patrick St
| Time | AQI | Temp °C | Hum % | Pres Pa | CO μg/m³ | H₂S μg/m³ | NO μg/m³ | NO₂ μg/m³ | O₃ μg/m³ | SO₂ μg/m³ | PM1 μg/m³ | PM2.5 μg/m³ | PM10 μg/m³ |
|---|---|---|---|---|---|---|---|---|---|---|---|---|---|
| Wednesday 5 August 2026 | |||||||||||||
| 23:09 | 2 | 14.6 | 66 | 77,416 | 0.16 | 0.21 | 3.07 | 9.31 | 55.65 | 0 | 2.86 | 6.13 | 6.74 |
| 23:08 | 2 | 14.6 | 66 | 77,408 | 0.16 | 0 | 3.16 | 7.32 | 46.96 | 0 | 2 | 6.11 | 6.73 |
| 23:07 | 2 | 14.6 | 66 | 77,402 | 0.16 | 0.02 | 3.16 | 8.04 | 49.5 | 0 | 2 | 6.11 | 6.73 |
| 23:06 | 2 | 14.7 | 66 | 77,394 | 0.15 | 0.49 | 3.16 | 8.91 | 53.83 | 0 | 2 | 5.39 | 5.93 |
| 23:05 | 2 | 14.7 | 66 | 77,374 | 0.14 | 0.15 | 3.2 | 8.67 | 50.64 | 0 | 2 | 6.12 | 6.73 |
| 23:03 | 2 | 14.7 | 66 | 77,368 | 0.15 | 0 | 3.19 | 8.41 | 50.66 | 0 | 2 | 6.13 | 6.74 |
| 23:02 | 2 | 14.7 | 66 | 77,376 | 0.15 | 0.13 | 3.16 | 9.29 | 58.5 | 0 | 2 | 6.11 | 6.73 |
| 23:01 | 2 | 14.7 | 66 | 77,412 | 0.13 | 0 | 3.15 | 7.5 | 49.28 | 0 | 2 | 6.13 | 6.75 |
| 22:58 | 2 | 14.7 | 66 | 77,707 | 0.14 | 0 | 3.14 | 8.41 | 50.31 | 0 | 2 | 5.39 | 5.93 |
| 22:56 | 2 | 14.7 | 66 | 77,935 | 0.16 | 0.18 | 3.2 | 9.02 | 52.32 | 0 | 2 | 6.11 | 6.73 |
| 22:55 | 2 | 14.7 | 66 | 78,053 | 0.18 | 0.31 | 3.2 | 9.73 | 56.81 | 0 | 2 | 6.11 | 6.72 |
| 22:53 | 2 | 14.8 | 66 | 78,188 | 0.16 | 0.47 | 3.18 | 8.49 | 50.74 | 0 | 2 | 6.83 | 7.51 |
| 22:52 | 2 | 14.8 | 66 | 78,248 | 0.14 | 0.65 | 3.16 | 8.73 | 48.58 | 0 | 2 | 6.11 | 6.72 |
| 22:47 | 2 | 14.8 | 67 | 78,712 | 0.16 | 1.12 | 3.19 | 10.38 | 58.16 | 0 | 2 | 5.35 | 5.88 |
| 22:46 | 2 | 14.8 | 67 | 78,777 | 0.15 | 1.4 | 3.19 | 9.05 | 54.41 | 0 | 2 | 5.35 | 5.89 |
| 22:45 | 2 | 14.8 | 67 | 78,914 | 0.15 | 1.45 | 3.18 | 9.87 | 56.1 | 0 | 2 | 6.09 | 6.7 |
| 22:44 | 2 | 14.8 | 67 | 78,977 | 0.15 | 1.61 | 3.14 | 9 | 52.42 | 0 | 2 | 6.09 | 6.7 |
| 22:43 | 2 | 14.8 | 67 | 79,095 | 0.15 | 2 | 3.2 | 11.32 | 59.46 | 0 | 2 | 6.06 | 6.67 |
| 22:42 | 2 | 14.8 | 67 | 79,168 | 0.16 | 1.79 | 3.16 | 10.31 | 57.26 | 0 | 2 | 6.09 | 6.7 |
| 22:41 | 2 | 14.8 | 67 | 79,302 | 0.15 | 2.26 | 3.17 | 10.51 | 55.19 | 0 | 2 | 6.07 | 6.68 |